Time;durP1;ratioP1;P1;durP2;ratioP2;P2;SDS_P1;SDS_P2;PMS_P1;PMS_P2;Temp;Humidity;BMP_temperature;BMP_pressure;BME280_temperature;BME280_humidity;BME280_pressure;Samples;Min_cycle;Max_cycle;Signal;HPM_P1;HPM_P2
2023/01/07 00:00:07;;;;;;;18.73;11.85;;;;;;;8.07;100.00;101635.78;5073983;28;20040;-78
2023/01/07 00:02:32;;;;;;;18.08;12.63;;;;;;;8.13;100.00;101638.41;5070624;28;20040;-78
2023/01/07 00:04:57;;;;;;;18.80;11.18;;;;;;;8.10;100.00;101637.53;5072878;28;20025;-78
2023/01/07 00:07:23;;;;;;;16.52;11.73;;;;;;;8.07;100.00;101640.13;5073747;28;20110;-78
2023/01/07 00:09:48;;;;;;;19.15;12.68;;;;;;;8.01;100.00;101625.44;5061981;28;20024;-78
2023/01/07 00:12:13;;;;;;;22.52;12.18;;;;;;;8.05;100.00;101632.34;5072162;28;20051;-78
2023/01/07 00:14:38;;;;;;;21.45;13.40;;;;;;;8.08;100.00;101631.50;5074419;28;20043;-78
2023/01/07 00:17:04;;;;;;;21.83;13.23;;;;;;;8.03;100.00;101615.03;5077123;28;20081;-78
2023/01/07 00:19:29;;;;;;;21.58;13.85;;;;;;;8.10;100.00;101609.81;5077868;28;20026;-78
2023/01/07 00:21:54;;;;;;;21.10;13.80;;;;;;;8.18;100.00;101625.41;5079912;28;20028;-78
2023/01/07 00:24:20;;;;;;;24.60;14.85;;;;;;;8.16;100.00;101617.63;5077172;28;20021;-78
2023/01/07 00:26:45;;;;;;;22.80;14.30;;;;;;;8.14;100.00;101621.97;5085127;28;20029;-78
2023/01/07 00:29:10;;;;;;;22.90;13.57;;;;;;;8.07;100.00;101611.56;5077368;28;20040;-78
2023/01/07 00:31:38;;;;;;;24.13;14.68;;;;;;;8.15;100.00;101626.28;5076589;28;20056;-78
2023/01/07 00:36:32;;;;;;;25.10;15.30;;;;;;;8.20;100.00;101608.94;5073228;28;20044;-78
2023/01/07 00:39:10;;;;;;;24.73;15.07;;;;;;;8.18;100.00;101610.69;5073736;28;20056;-78
2023/01/07 00:41:36;;;;;;;26.10;15.10;;;;;;;8.11;100.00;101606.38;5076756;28;20024;-78
2023/01/07 00:44:02;;;;;;;22.83;14.30;;;;;;;8.09;100.00;101600.31;5061538;28;20154;-78
2023/01/07 00:46:28;;;;;;;21.63;13.45;;;;;;;8.08;100.00;101595.13;5073508;28;20037;-78
2023/01/07 00:48:54;;;;;;;19.00;13.60;;;;;;;8.16;100.00;101601.16;5073676;28;20575;-78
2023/01/07 00:51:19;;;;;;;22.08;13.40;;;;;;;8.17;100.00;101598.59;5072777;28;20094;-78
2023/01/07 00:53:45;;;;;;;21.48;13.02;;;;;;;8.19;100.00;101594.22;5073161;28;20020;-78
2023/01/07 00:56:13;;;;;;;21.33;12.50;;;;;;;8.23;100.00;101596.84;5072751;28;20457;-78
2023/01/07 00:58:38;;;;;;;20.27;12.23;;;;;;;8.26;100.00;101583.84;5073581;28;20028;-78
2023/01/07 01:01:04;;;;;;;17.85;11.98;;;;;;;8.36;100.00;101582.94;5072943;28;20031;-78
2023/01/07 01:03:30;;;;;;;22.60;11.65;;;;;;;8.28;100.00;101580.38;5073233;28;20028;-78
2023/01/07 01:06:12;;;;;;;15.65;11.20;;;;;;;8.32;100.00;101579.50;5073236;28;20020;-78
2023/01/07 01:08:40;;;;;;;15.25;11.05;;;;;;;8.19;100.00;101570.84;5072394;28;20017;-78
2023/01/07 01:11:07;;;;;;;17.83;11.05;;;;;;;8.17;100.00;101564.81;5073244;28;20353;-78
2023/01/07 01:13:33;;;;;;;19.17;11.25;;;;;;;8.17;100.00;101570.03;5073473;28;20027;-78
2023/01/07 01:15:58;;;;;;;14.48;10.35;;;;;;;8.01;100.00;101565.72;5072847;28;20032;-78
2023/01/07 01:18:24;;;;;;;15.93;10.20;;;;;;;8.06;100.00;101570.88;5074022;28;20372;-78
2023/01/07 01:20:49;;;;;;;16.08;10.25;;;;;;;8.00;100.00;101565.69;5073144;28;20028;-78
2023/01/07 01:23:14;;;;;;;17.33;11.13;;;;;;;7.96;100.00;101559.66;5072056;28;20066;-78
2023/01/07 01:25:39;;;;;;;16.30;9.90;;;;;;;7.94;100.00;101553.59;5072479;28;20020;-78
2023/01/07 01:28:05;;;;;;;20.27;11.73;;;;;;;7.91;100.00;101546.69;5077085;28;20384;-78
2023/01/07 01:30:31;;;;;;;14.60;10.45;;;;;;;7.91;100.00;101553.59;5075356;28;20074;-78
2023/01/07 01:32:56;;;;;;;16.40;11.38;;;;;;;7.87;100.00;101551.88;5072351;28;20021;-78
2023/01/07 01:35:21;;;;;;;17.05;10.60;;;;;;;7.83;100.00;101544.94;5077588;28;20460;-78
2023/01/07 01:37:47;;;;;;;14.48;10.70;;;;;;;7.86;100.00;101544.94;5084550;28;20150;-78
2023/01/07 01:40:12;;;;;;;14.43;9.82;;;;;;;7.82;100.00;101538.03;5072558;28;20012;-78
2023/01/07 01:42:37;;;;;;;15.88;11.00;;;;;;;7.90;100.00;101552.72;5068473;28;20075;-78
2023/01/07 01:45:04;;;;;;;17.38;11.02;;;;;;;7.90;100.00;101552.72;5072588;28;20040;-78
2023/01/07 01:47:51;;;;;;;15.63;11.40;;;;;;;7.87;100.00;101546.66;5071928;28;20486;-78
2023/01/07 01:50:34;;;;;;;14.07;10.85;;;;;;;7.81;100.00;101544.06;5063594;28;20377;-78
2023/01/07 01:53:08;;;;;;;13.85;9.50;;;;;;;7.83;100.00;101545.81;5066697;28;20135;-78
2023/01/07 01:55:36;;;;;;;16.65;10.45;;;;;;;7.84;100.00;101552.72;5072247;28;20077;-78
2023/01/07 01:58:06;;;;;;;18.45;10.35;;;;;;;7.80;100.00;101544.94;5071520;28;20480;-78
2023/01/07 02:00:33;;;;;;;19.30;10.35;;;;;;;7.80;100.00;101548.41;5067417;28;20023;-78
2023/01/07 02:02:58;;;;;;;17.52;10.30;;;;;;;7.81;100.00;101541.47;5064748;28;20020;-78
2023/01/07 02:05:30;;;;;;;16.88;9.52;;;;;;;7.79;100.00;101546.69;5070539;28;20031;-78
2023/01/07 02:07:55;;;;;;;15.88;9.70;;;;;;;7.78;100.00;101544.06;5071365;28;20416;-78
2023/01/07 02:10:23;;;;;;;14.68;10.02;;;;;;;7.76;100.00;101546.69;5071651;28;20040;-78
2023/01/07 02:13:20;;;;;;;13.80;9.18;;;;;;;7.72;100.00;101542.38;5071968;28;20044;-78
2023/01/07 02:16:04;;;;;;;15.82;9.75;;;;;;;7.72;100.00;101547.56;5072101;28;20029;-78
2023/01/07 02:18:51;;;;;;;17.13;9.82;;;;;;;7.71;100.00;101546.66;5071430;28;20016;-78
2023/01/07 02:21:48;;;;;;;16.50;10.40;;;;;;;7.71;100.00;101541.47;5070516;28;20041;-78
2023/01/07 02:24:35;;;;;;;14.95;9.40;;;;;;;7.74;100.00;101538.88;5071742;28;20044;-78
2023/01/07 02:27:15;;;;;;;15.60;9.25;;;;;;;7.71;100.00;101533.69;5071697;28;20116;-78
2023/01/07 02:30:11;;;;;;;15.15;9.57;;;;;;;7.73;100.00;101537.16;5059592;28;20066;-78
2023/01/07 02:33:01;;;;;;;15.88;9.00;;;;;;;7.61;100.00;101534.56;5070249;28;20028;-78
2023/01/07 02:35:57;;;;;;;17.23;9.35;;;;;;;7.61;100.00;101542.34;5064655;28;20036;-78
2023/01/07 02:38:41;;;;;;;14.23;8.85;;;;;;;7.60;100.00;101534.59;5065823;28;20028;-78
2023/01/07 02:41:48;;;;;;;16.70;9.15;;;;;;;7.55;100.00;101537.16;5072038;28;20099;-78
2023/01/07 02:44:21;;;;;;;11.43;8.52;;;;;;;7.54;100.00;101535.44;5065468;28;20033;-78
2023/01/07 02:47:19;;;;;;;18.88;9.38;;;;;;;7.56;100.00;101528.53;5074871;28;20036;-78
2023/01/07 02:49:47;;;;;;;13.68;9.10;;;;;;;7.66;100.00;101529.41;5072671;28;20067;-78
2023/01/07 02:52:25;;;;;;;13.73;9.20;;;;;;;7.71;100.00;101525.91;5071789;28;20467;-78
2023/01/07 02:55:02;;;;;;;14.18;8.65;;;;;;;7.80;100.00;101525.03;5071403;28;20028;-78
2023/01/07 02:58:03;;;;;;;19.50;9.27;;;;;;;7.88;100.00;101517.25;5071513;28;20028;-78
2023/01/07 03:00:50;;;;;;;12.85;9.20;;;;;;;7.93;100.00;101518.09;5059676;28;20028;-78
2023/01/07 03:03:41;;;;;;;18.48;9.15;;;;;;;8.00;100.00;101519.81;5071341;28;20227;-78
2023/01/07 03:06:37;;;;;;;15.20;8.35;;;;;;;8.05;100.00;101519.81;5071776;28;20020;-78
2023/01/07 03:09:10;;;;;;;9.90;7.45;;;;;;;8.11;100.00;101512.00;5070833;28;20107;-78
2023/01/07 03:11:59;;;;;;;11.77;8.57;;;;;;;8.12;100.00;101506.81;5071695;28;20051;-78
2023/01/07 03:14:36;;;;;;;11.15;8.40;;;;;;;8.15;100.00;101504.22;5071261;28;20100;-78
2023/01/07 03:17:04;;;;;;;9.73;7.45;;;;;;;8.14;100.00;101499.91;5071607;28;20017;-78
2023/01/07 03:19:35;;;;;;;10.45;7.28;;;;;;;8.17;100.00;101499.00;5074978;28;20052;-78
2023/01/07 03:22:03;;;;;;;11.38;7.35;;;;;;;8.20;100.00;101492.06;5074628;28;20028;-78
2023/01/07 03:24:31;;;;;;;11.88;7.38;;;;;;;8.17;100.00;101494.69;5074138;28;20472;-78
2023/01/07 03:26:57;;;;;;;10.63;7.22;;;;;;;8.10;100.00;101477.38;5075499;28;20051;-78
2023/01/07 03:29:23;;;;;;;10.50;7.38;;;;;;;8.19;100.00;101486.88;5074409;28;20024;-78
2023/01/07 03:32:01;;;;;;;9.80;6.80;;;;;;;8.19;100.00;101472.16;5075097;28;20103;-78
2023/01/07 03:34:28;;;;;;;9.95;6.80;;;;;;;8.11;100.00;101460.94;5075287;28;20422;-78
2023/01/07 03:37:03;;;;;;;9.82;6.60;;;;;;;8.20;100.00;101479.06;5074589;28;20082;-78
2023/01/07 03:39:31;;;;;;;9.95;6.15;;;;;;;8.23;100.00;101477.34;5074813;28;20024;-78
2023/01/07 03:44:41;;;;;;;9.18;6.57;;;;;;;8.25;100.00;101468.69;5073191;28;20040;-78
2023/01/07 03:47:08;;;;;;;9.95;5.90;;;;;;;8.19;100.00;101455.72;5075070;28;20025;-78
2023/01/07 03:49:35;;;;;;;9.20;6.35;;;;;;;8.26;100.00;101464.34;5074542;28;20032;-78
2023/01/07 03:52:01;;;;;;;9.82;6.07;;;;;;;8.29;100.00;101466.94;5074436;28;20052;-78
2023/01/07 03:54:26;;;;;;;8.55;6.03;;;;;;;8.29;100.00;101464.34;5074798;28;20059;-78
2023/01/07 03:56:51;;;;;;;9.65;5.90;;;;;;;8.34;100.00;101467.78;5073204;28;20082;-78
2023/01/07 03:59:17;;;;;;;7.28;5.70;;;;;;;8.34;100.00;101457.41;5073707;28;20059;-78
2023/01/07 04:01:42;;;;;;;10.82;5.47;;;;;;;8.35;100.00;101456.53;5086618;28;20082;-78
2023/01/07 04:04:07;;;;;;;8.70;5.93;;;;;;;8.38;100.00;101460.00;5074226;28;20491;-78
2023/01/07 04:06:34;;;;;;;7.97;5.15;;;;;;;8.37;100.00;101441.75;5084175;28;20480;-78
2023/01/07 04:08:59;;;;;;;8.18;5.22;;;;;;;8.42;100.00;101447.84;5074742;28;20384;-78
2023/01/07 04:11:24;;;;;;;7.82;5.10;;;;;;;8.44;100.00;101440.94;5075685;28;20021;-78
2023/01/07 04:13:50;;;;;;;8.63;5.07;;;;;;;8.42;100.00;101442.66;5086735;28;20131;-78
2023/01/07 04:16:15;;;;;;;8.40;5.05;;;;;;;8.40;100.00;101428.78;5073261;28;20078;-78
2023/01/07 04:18:40;;;;;;;8.82;5.10;;;;;;;8.47;100.00;101429.63;5083716;28;20032;-78
2023/01/07 04:21:06;;;;;;;8.75;5.10;;;;;;;8.49;100.00;101435.69;5074068;28;20491;-78
2023/01/07 04:23:31;;;;;;;9.00;4.80;;;;;;;8.46;100.00;101430.50;5074074;28;20024;-78
2023/01/07 04:25:56;;;;;;;6.90;5.03;;;;;;;8.36;100.00;101412.31;5074125;28;20021;-78
2023/01/07 04:28:22;;;;;;;7.70;4.82;;;;;;;8.32;100.00;101413.22;5073876;28;20075;-78
2023/01/07 04:30:47;;;;;;;9.10;5.15;;;;;;;8.25;100.00;101406.34;5080483;28;20472;-78
2023/01/07 04:33:12;;;;;;;8.93;4.55;;;;;;;8.20;100.00;101405.47;5072752;28;20031;-78
2023/01/07 04:35:39;;;;;;;7.80;5.07;;;;;;;8.20;100.00;101406.34;5074199;28;20044;-78
2023/01/07 04:38:04;;;;;;;7.25;4.60;;;;;;;8.20;100.00;101401.16;5073608;28;20077;-78
2023/01/07 04:40:30;;;;;;;6.07;5.00;;;;;;;8.12;100.00;101402.06;5073675;28;20025;-78
2023/01/07 04:42:55;;;;;;;6.97;4.70;;;;;;;8.14;100.00;101392.53;5068861;28;20020;-78
2023/01/07 04:45:21;;;;;;;6.00;4.15;;;;;;;8.09;100.00;101400.34;5073098;28;20052;-78
2023/01/07 04:47:46;;;;;;;8.75;4.85;;;;;;;8.02;100.00;101380.47;5073894;28;20021;-78
2023/01/07 04:50:12;;;;;;;5.60;4.25;;;;;;;8.02;100.00;101384.81;5072849;28;20021;-78
2023/01/07 04:52:37;;;;;;;6.85;4.20;;;;;;;8.02;100.00;101388.25;5073538;28;20025;-78
2023/01/07 04:55:03;;;;;;;7.88;4.53;;;;;;;8.00;100.00;101379.59;5073635;28;20024;-78
2023/01/07 04:57:28;;;;;;;6.40;4.47;;;;;;;7.88;100.00;101357.19;5073472;28;20035;-78
2023/01/07 04:59:53;;;;;;;7.57;4.22;;;;;;;8.02;100.00;101385.66;5073251;28;20109;-78
2023/01/07 05:02:19;;;;;;;9.68;4.32;;;;;;;8.03;100.00;101370.94;5073264;28;20036;-78
2023/01/07 05:04:44;;;;;;;6.80;3.88;;;;;;;7.94;100.00;101367.50;5073804;28;20021;-78
2023/01/07 05:07:09;;;;;;;5.50;4.25;;;;;;;8.01;100.00;101377.88;5073366;28;20044;-78
2023/01/07 05:09:35;;;;;;;7.65;4.40;;;;;;;8.00;100.00;101377.00;5073575;28;20103;-78
2023/01/07 05:12:00;;;;;;;4.53;3.53;;;;;;;7.96;100.00;101380.50;5073277;28;20058;-78
2023/01/07 05:14:25;;;;;;;5.30;3.83;;;;;;;7.95;100.00;101377.03;5072838;28;20039;-78
2023/01/07 05:16:51;;;;;;;5.72;3.72;;;;;;;7.95;100.00;101371.00;5073247;28;20032;-78
2023/01/07 05:19:16;;;;;;;8.52;4.97;;;;;;;7.95;100.00;101373.59;5073171;28;20025;-78
2023/01/07 05:21:41;;;;;;;7.97;4.00;;;;;;;7.95;100.00;101371.00;5072780;28;20036;-78
2023/01/07 05:24:07;;;;;;;8.23;4.00;;;;;;;7.93;100.00;101365.78;5072202;28;20027;-78
2023/01/07 05:26:33;;;;;;;4.55;3.65;;;;;;;7.95;100.00;101371.84;5072987;28;20495;-78
2023/01/07 05:28:58;;;;;;;5.07;3.45;;;;;;;7.90;100.00;101365.78;5072420;28;20024;-78
2023/01/07 05:31:23;;;;;;;5.35;3.72;;;;;;;7.92;100.00;101363.22;5072514;28;20025;-77
2023/01/07 05:33:48;;;;;;;6.85;3.75;;;;;;;7.89;100.00;101358.88;5073092;28;20020;-78
2023/01/07 05:36:14;;;;;;;5.07;3.75;;;;;;;7.88;100.00;101357.19;5072406;28;20021;-78
2023/01/07 05:38:39;;;;;;;5.03;3.47;;;;;;;7.94;100.00;101362.31;5072629;28;20373;-78
2023/01/07 05:41:04;;;;;;;7.00;3.45;;;;;;;8.00;100.00;101366.63;5071807;28;20033;-78
2023/01/07 05:43:30;;;;;;;5.53;3.55;;;;;;;8.06;100.00;101366.59;5071325;28;20020;-78
2023/01/07 05:45:56;;;;;;;4.43;3.38;;;;;;;8.10;100.00;101362.25;5073547;28;20391;-78
2023/01/07 05:48:22;;;;;;;3.45;3.15;;;;;;;8.16;100.00;101357.88;5074716;28;20170;-78
2023/01/07 05:50:47;;;;;;;7.35;3.50;;;;;;;8.19;100.00;101349.22;5085400;28;20391;-78
2023/01/07 05:53:12;;;;;;;4.82;3.30;;;;;;;8.26;100.00;101353.50;5073379;28;20040;-78
2023/01/07 05:55:38;;;;;;;5.75;3.30;;;;;;;8.28;100.00;101354.38;5078700;28;20035;-78
2023/01/07 05:58:05;;;;;;;5.95;2.92;;;;;;;8.30;100.00;101349.16;5074618;28;20071;-78
2023/01/07 06:00:30;;;;;;;4.10;2.97;;;;;;;8.35;100.00;101342.22;5072574;28;20170;-78
2023/01/07 06:02:55;;;;;;;3.67;2.95;;;;;;;8.36;100.00;101338.72;5071774;28;20283;-78
2023/01/07 06:05:21;;;;;;;3.72;2.70;;;;;;;8.42;100.00;101330.94;5072207;28;20028;-78
2023/01/07 06:07:46;;;;;;;5.05;2.83;;;;;;;8.42;100.00;101336.97;5078592;28;20040;-78
2023/01/07 06:10:12;;;;;;;3.58;2.60;;;;;;;8.48;100.00;101340.44;5072956;28;20025;-78
2023/01/07 06:12:37;;;;;;;4.47;2.70;;;;;;;8.50;100.00;101331.75;5072113;28;20170;-78
2023/01/07 06:15:03;;;;;;;4.18;2.70;;;;;;;8.49;100.00;101324.81;5071507;28;20037;-78
2023/01/07 06:17:28;;;;;;;4.63;2.33;;;;;;;8.57;100.00;101327.38;5071266;28;20020;-78
2023/01/07 06:19:53;;;;;;;3.13;2.33;;;;;;;8.52;100.00;101318.75;5072255;28;20025;-78
2023/01/07 06:22:19;;;;;;;2.72;2.10;;;;;;;8.58;100.00;101321.28;5071881;28;20499;-78
2023/01/07 06:24:44;;;;;;;3.67;2.10;;;;;;;8.58;100.00;101319.56;5072045;28;20108;-78
2023/01/07 06:27:09;;;;;;;2.97;2.50;;;;;;;8.56;100.00;101312.63;5071433;28;20020;-78
2023/01/07 06:29:35;;;;;;;3.88;2.47;;;;;;;8.55;100.00;101310.91;5072454;28;20075;-78
2023/01/07 06:32:00;;;;;;;2.53;2.20;;;;;;;8.56;100.00;101302.25;5070842;28;20116;-78
2023/01/07 06:34:26;;;;;;;4.03;1.80;;;;;;;8.55;100.00;101297.94;5071976;28;20016;-78
2023/01/07 06:36:51;;;;;;;3.78;2.45;;;;;;;8.57;100.00;101304.00;5072426;28;20029;-78
2023/01/07 06:39:16;;;;;;;2.42;2.00;;;;;;;8.51;100.00;101297.09;5071055;28;20021;-78
2023/01/07 06:41:41;;;;;;;3.85;2.35;;;;;;;8.52;100.00;101309.19;5071890;28;20058;-79
2023/01/07 06:44:07;;;;;;;4.28;2.25;;;;;;;8.54;100.00;101307.47;5069193;28;20036;-78
2023/01/07 06:46:32;;;;;;;2.65;1.80;;;;;;;8.52;100.00;101304.00;5071285;28;20024;-78
2023/01/07 06:48:57;;;;;;;5.88;2.10;;;;;;;8.47;100.00;101282.41;5071116;28;20032;-78
2023/01/07 06:51:23;;;;;;;3.00;2.00;;;;;;;8.50;100.00;101294.47;5071781;28;20026;-78
2023/01/07 06:53:48;;;;;;;3.08;1.85;;;;;;;8.47;100.00;101291.91;5072655;28;20353;-78
2023/01/07 06:56:13;;;;;;;3.10;1.73;;;;;;;8.49;100.00;101292.78;5075834;28;20116;-78
2023/01/07 06:58:39;;;;;;;2.22;1.98;;;;;;;8.49;100.00;101285.84;5075199;28;20035;-78
2023/01/07 07:01:06;;;;;;;2.65;2.00;;;;;;;8.50;100.00;101292.78;5074880;28;20029;-78
2023/01/07 07:03:31;;;;;;;2.17;1.77;;;;;;;8.51;100.00;101294.50;5075491;28;20419;-78
2023/01/07 07:05:56;;;;;;;3.95;1.90;;;;;;;8.49;100.00;101275.44;5079968;28;20043;-78
2023/01/07 07:08:21;;;;;;;5.00;1.63;;;;;;;8.51;100.00;101291.88;5078116;28;20020;-78
2023/01/07 07:10:47;;;;;;;3.17;1.65;;;;;;;8.54;100.00;101281.47;5085192;28;20020;-78
2023/01/07 07:13:12;;;;;;;2.72;1.75;;;;;;;8.54;100.00;101280.63;5079724;28;20445;-78
2023/01/07 07:15:37;;;;;;;2.30;1.52;;;;;;;8.52;100.00;101278.00;5075765;28;20074;-78
2023/01/07 07:18:03;;;;;;;3.33;1.70;;;;;;;8.49;100.00;101272.84;5075850;28;20017;-78
2023/01/07 07:20:28;;;;;;;3.17;1.80;;;;;;;8.46;100.00;101262.47;5074818;28;20027;-78
2023/01/07 07:22:53;;;;;;;4.00;2.00;;;;;;;8.37;100.00;101258.19;5069843;28;20032;-78
2023/01/07 07:25:19;;;;;;;1.90;1.70;;;;;;;8.35;100.00;101257.34;5071996;28;20016;-78
2023/01/07 07:27:45;;;;;;;2.20;1.92;;;;;;;8.27;100.00;101240.06;5074949;28;20032;-78
2023/01/07 07:30:15;;;;;;;3.55;1.63;;;;;;;8.34;100.00;101263.41;5074952;28;20105;-78
2023/01/07 07:32:41;;;;;;;2.25;1.77;;;;;;;8.30;100.00;101258.22;5075413;28;20541;-78
2023/01/07 07:35:06;;;;;;;2.88;2.30;;;;;;;8.25;100.00;101245.28;5074889;28;20117;-78
2023/01/07 07:37:32;;;;;;;2.03;1.73;;;;;;;8.31;100.00;101258.25;5074521;28;20469;-78
2023/01/07 07:39:57;;;;;;;2.63;1.92;;;;;;;8.32;100.00;101256.50;5068062;28;20032;-78
2023/01/07 07:42:22;;;;;;;5.45;1.98;;;;;;;8.33;100.00;101255.63;5066294;28;20081;-78
2023/01/07 07:44:49;;;;;;;3.50;1.70;;;;;;;8.30;100.00;101248.69;5074457;28;20069;-78
2023/01/07 07:47:14;;;;;;;4.28;2.10;;;;;;;8.26;100.00;101234.03;5075006;28;20024;-78
2023/01/07 07:49:40;;;;;;;3.95;1.80;;;;;;;8.34;100.00;101249.56;5074539;28;20029;-78
2023/01/07 07:52:05;;;;;;;2.70;2.10;;;;;;;8.31;100.00;101237.47;5074673;28;20031;-78
2023/01/07 07:54:31;;;;;;;2.80;1.60;;;;;;;8.35;100.00;101235.69;5074575;28;20029;-78
2023/01/07 07:56:57;;;;;;;3.03;1.70;;;;;;;8.35;100.00;101241.75;5067282;28;20511;-78
2023/01/07 07:59:22;;;;;;;2.13;1.90;;;;;;;8.35;100.00;101240.88;5076466;28;20057;-78
2023/01/07 08:01:49;;;;;;;3.25;2.40;;;;;;;8.32;100.00;101230.53;5075575;28;20025;-78
2023/01/07 08:04:14;;;;;;;2.92;2.20;;;;;;;8.30;100.00;101234.84;5073267;28;20495;-78
2023/01/07 08:06:39;;;;;;;2.45;1.70;;;;;;;8.26;100.00;101225.38;5077412;28;20052;-78
2023/01/07 08:09:05;;;;;;;2.67;1.80;;;;;;;8.28;100.00;101232.28;5067051;28;20033;-78
2023/01/07 08:11:30;;;;;;;2.25;1.60;;;;;;;8.27;100.00;101217.56;5071948;28;20055;-78
2023/01/07 08:13:55;;;;;;;2.05;1.70;;;;;;;8.27;100.00;101219.28;5063357;28;20027;-78
2023/01/07 08:16:21;;;;;;;2.08;1.77;;;;;;;8.36;100.00;101221.81;5082733;28;20972;-78
2023/01/07 08:18:46;;;;;;;1.98;1.77;;;;;;;8.41;100.00;101217.50;5075196;28;20028;-78
2023/01/07 08:21:11;;;;;;;2.67;1.70;;;;;;;8.50;100.00;101220.03;5075829;28;20502;-77
2023/01/07 08:23:37;;;;;;;2.70;1.70;;;;;;;8.50;100.00;101211.34;5073179;28;20036;-77
2023/01/07 08:26:03;;;;;;;2.42;1.73;;;;;;;8.58;100.00;101214.75;5077068;28;20491;-78
2023/01/07 08:28:30;;;;;;;2.63;1.42;;;;;;;8.63;100.00;101213.81;5077798;28;20410;-77
2023/01/07 08:30:55;;;;;;;2.85;1.50;;;;;;;8.67;100.00;101207.72;5076664;28;20018;-77
2023/01/07 08:33:21;;;;;;;4.68;1.65;;;;;;;8.73;100.00;101206.81;5080963;28;20028;-77
2023/01/07 08:35:46;;;;;;;2.60;1.55;;;;;;;8.76;100.00;101204.16;5073641;28;20025;-77
2023/01/07 08:38:11;;;;;;;2.10;1.38;;;;;;;8.77;100.00;101202.44;5065173;28;20036;-78
2023/01/07 08:40:37;;;;;;;1.80;1.38;;;;;;;8.83;100.00;101207.56;5070137;28;20116;-78
2023/01/07 08:43:05;;;;;;;2.30;1.40;;;;;;;8.86;100.00;101195.41;5073052;28;20024;-78
2023/01/07 08:45:31;;;;;;;2.35;1.58;;;;;;;8.86;100.00;101199.72;5073533;28;20035;-78
2023/01/07 08:47:57;;;;;;;2.75;1.67;;;;;;;8.89;100.00;101194.47;5070289;28;20020;-78
2023/01/07 08:50:28;;;;;;;2.72;1.60;;;;;;;8.89;100.00;101190.16;5062922;28;20037;-79
2023/01/07 08:52:54;;;;;;;2.47;1.55;;;;;;;8.94;100.00;101200.50;5064734;28;20032;-78
2023/01/07 08:55:20;;;;;;;1.95;1.50;;;;;;;8.96;100.00;101187.47;5073015;28;20522;-78
2023/01/07 08:57:46;;;;;;;3.42;1.50;;;;;;;8.98;100.00;101189.19;5074257;28;20024;-78
2023/01/07 09:00:16;;;;;;;2.03;1.42;;;;;;;9.02;100.00;101192.59;5072029;28;20016;-78
2023/01/07 09:02:42;;;;;;;1.50;1.40;;;;;;;9.03;100.00;101187.41;5073605;28;20123;-78
2023/01/07 09:05:08;;;;;;;2.85;1.55;;;;;;;9.08;100.00;101190.78;5072866;28;20418;-78
2023/01/07 09:07:34;;;;;;;1.60;1.38;;;;;;;9.10;100.00;101188.19;5073427;28;20055;-78
2023/01/07 09:09:59;;;;;;;3.25;1.60;;;;;;;9.13;100.00;101175.16;5074152;28;20028;-78
2023/01/07 09:12:24;;;;;;;2.15;1.63;;;;;;;9.13;100.00;101173.41;5071730;28;20036;-78
2023/01/07 09:14:49;;;;;;;3.38;1.77;;;;;;;9.20;100.00;101178.53;5073319;28;20028;-78
2023/01/07 09:17:15;;;;;;;2.65;1.42;;;;;;;9.21;100.00;101169.84;5072515;28;20020;-78
2023/01/07 09:19:40;;;;;;;3.97;1.50;;;;;;;9.22;100.00;101172.44;5072528;28;20136;-78
2023/01/07 09:22:05;;;;;;;2.20;1.45;;;;;;;9.24;100.00;101160.25;5072852;28;20070;-78
2023/01/07 09:24:31;;;;;;;2.70;1.30;;;;;;;9.24;100.00;101164.59;5074573;28;20484;-78
2023/01/07 09:26:56;;;;;;;2.67;1.25;;;;;;;9.30;100.00;101164.53;5073698;28;20036;-78
2023/01/07 09:29:21;;;;;;;1.33;1.20;;;;;;;9.32;100.00;101157.56;5078765;28;20106;-79
2023/01/07 09:31:47;;;;;;;3.53;1.55;;;;;;;9.37;100.00;101160.97;5079182;28;20025;-77
2023/01/07 09:34:12;;;;;;;2.00;1.20;;;;;;;9.37;100.00;101158.34;5072083;28;20028;-78
2023/01/07 09:36:37;;;;;;;2.35;1.20;;;;;;;9.37;100.00;101146.22;5073832;28;20028;-79
2023/01/07 09:39:03;;;;;;;3.15;1.40;;;;;;;9.44;100.00;101153.94;5072206;28;20490;-78
2023/01/07 09:41:31;;;;;;;1.60;1.27;;;;;;;9.51;100.00;101155.56;5062143;28;20506;-78
2023/01/07 09:44:21;;;;;;;3.47;1.15;;;;;;;9.55;100.00;101147.72;5071497;28;20115;-78
2023/01/07 09:46:48;;;;;;;1.40;1.17;;;;;;;9.56;100.00;101130.34;5060672;28;20493;-77
2023/01/07 09:49:17;;;;;;;2.60;1.48;;;;;;;9.61;100.00;101126.78;5072340;28;20048;-78
2023/01/07 09:51:47;;;;;;;1.63;1.25;;;;;;;9.74;100.00;101131.78;5068213;28;20028;-78
2023/01/07 09:54:29;;;;;;;1.70;1.30;;;;;;;9.80;100.00;101126.50;5071937;28;20032;-78
2023/01/07 09:56:54;;;;;;;2.30;1.30;;;;;;;9.67;100.00;101101.53;5058788;28;20310;-78
2023/01/07 09:59:19;;;;;;;1.63;1.15;;;;;;;9.77;99.24;101122.19;5073524;28;20047;-78
2023/01/07 10:01:53;;;;;;;1.92;1.33;;;;;;;9.69;99.28;101113.66;5071176;28;20043;-78
2023/01/07 10:04:35;;;;;;;1.75;1.30;;;;;;;9.69;98.57;101124.06;5070555;28;20512;-78
2023/01/07 10:07:31;;;;;;;2.88;1.40;;;;;;;9.68;100.00;101113.66;5066832;28;20129;-78
2023/01/07 10:10:16;;;;;;;1.88;1.33;;;;;;;9.64;100.00;101102.44;5071583;28;20062;-78
2023/01/07 10:13:17;;;;;;;2.55;1.38;;;;;;;9.63;100.00;101095.53;5070259;28;20060;-78
2023/01/07 10:15:50;;;;;;;1.80;1.52;;;;;;;9.63;100.00;101090.31;5060266;28;20036;-79
2023/01/07 10:18:32;;;;;;;2.70;1.40;;;;;;;9.64;100.00;101080.75;5076751;28;20482;-79
2023/01/07 10:21:45;;;;;;;3.58;1.58;;;;;;;9.66;100.00;101071.19;5072188;28;20533;-79
2023/01/07 10:24:18;;;;;;;2.70;1.50;;;;;;;9.68;99.60;101072.91;5001424;28;20069;-79
2023/01/07 10:26:48;;;;;;;2.28;1.50;;;;;;;9.67;99.45;101065.09;5009289;28;20105;-78
2023/01/07 10:29:18;;;;;;;2.15;1.50;;;;;;;9.72;99.35;101060.69;5039919;28;20068;-79
2023/01/07 10:31:45;;;;;;;1.70;1.30;;;;;;;9.76;98.25;101059.75;5067700;28;20028;-78
2023/01/07 10:34:36;;;;;;;3.03;1.25;;;;;;;9.76;99.21;101044.13;5071606;28;20376;-78
2023/01/07 10:37:16;;;;;;;3.08;1.30;;;;;;;9.73;98.81;101032.00;5071232;28;20033;-78
2023/01/07 10:40:10;;;;;;;1.67;1.40;;;;;;;9.77;97.86;101038.03;5072052;28;20025;-77
2023/01/07 10:42:39;;;;;;;;;;;;;;;9.79;100.00;101031.06;5071407;28;20494;-78
2023/01/07 10:45:23;;;;;;;1.75;1.35;;;;;;;9.82;99.03;101029.25;5059318;28;19971;-78
2023/01/07 10:48:06;;;;;;;2.08;1.40;;;;;;;9.86;95.07;101022.25;5063652;28;20436;-77
2023/01/07 10:51:09;;;;;;;1.30;1.20;;;;;;;9.89;96.72;101016.13;5065669;28;20500;-77
2023/01/07 10:53:35;;;;;;;1.67;1.20;;;;;;;9.91;93.86;101020.44;5067542;28;20041;-78
2023/01/07 10:56:25;;;;;;;2.10;1.20;;;;;;;9.91;93.68;101003.91;5071731;28;20373;-78
2023/01/07 10:58:51;;;;;;;1.30;1.17;;;;;;;9.92;92.35;101001.31;5070579;28;20033;-78
2023/01/07 11:01:33;;;;;;;1.30;1.10;;;;;;;9.92;93.11;101003.91;5071334;28;20039;-78
2023/01/07 11:03:59;;;;;;;1.75;1.23;;;;;;;9.95;90.91;101003.84;5071837;28;20043;-78
2023/01/07 11:06:43;;;;;;;1.40;1.30;;;;;;;9.98;90.52;100992.53;5069457;28;20549;-77
2023/01/07 11:09:14;;;;;;;1.98;1.15;;;;;;;10.12;90.11;100990.50;5072328;28;20116;-78
2023/01/07 11:11:41;;;;;;;1.90;1.38;;;;;;;10.21;88.02;100976.47;5073476;28;20028;-78
2023/01/07 11:14:13;;;;;;;1.83;1.40;;;;;;;10.39;88.29;100983.91;5074245;28;20028;-79
2023/01/07 11:16:46;;;;;;;1.67;1.00;;;;;;;10.49;85.88;100985.44;5060675;28;20028;-77
2023/01/07 11:19:11;;;;;;;1.38;1.10;;;;;;;10.49;87.80;100964.59;5070041;28;20055;-78
2023/01/07 11:21:45;;;;;;;2.05;1.27;;;;;;;10.49;87.35;100974.16;5070341;28;20464;-77
2023/01/07 11:24:25;;;;;;;1.77;1.33;;;;;;;10.49;88.19;100961.97;5071277;28;20075;-77
2023/01/07 11:26:51;;;;;;;1.73;1.10;;;;;;;10.52;85.89;100963.69;5071260;28;20060;-77
2023/01/07 11:29:27;;;;;;;1.77;1.23;;;;;;;10.53;86.04;100953.22;5069792;28;20025;-77
2023/01/07 11:31:55;;;;;;;1.38;1.25;;;;;;;10.49;85.50;100946.34;5071036;28;20036;-77
2023/01/07 11:34:33;;;;;;;1.23;1.10;;;;;;;10.43;86.01;100941.28;5069433;28;20107;-77
2023/01/07 11:36:58;;;;;;;1.67;1.25;;;;;;;10.39;85.63;100937.00;5071422;28;20029;-77